Denver, PA (17517)

5:08 PM EDT on August 23, 2016 (GMT -0400)
George's Weather Hut | | Change Station

Elev 480 ft 40.27 °N, 76.11 °W | Updated 3 minutes ago

Partly Cloudy
Partly Cloudy
81.5 °F
Feels Like 82 °F
N
0.0
Wind Variable Wind from WSW
Gusts 4.0 mph

Today
High -- | Low -- °F
--% Chance of Precip.
Yesterday
High -- | Low -- °F
Precip. -- in
Pressure 30.27 in
Visibility 10.0 miles
Clouds Few 6000 ft
Heat Index 82 °F
Dew Point 60 °F
Humidity 49%
Rainfall 0.00 in
Snow Depth Not available.
6:23 AM 7:49 PM
Waning Gibbous, 64% visible
METAR KLNS 232053Z 28004KT 10SM FEW060 27/15 A3028 RMK AO2 SLP251 T02720150 56016
Pressure 30.27 in
Visibility 10.0 miles
Clouds Few 6000 ft
Heat Index 82 °F
Dew Point 60 °F
Humidity 49%
Rainfall 0.00 in
Snow Depth Not available.
6:23 AM 7:49 PM
Waning Gibbous, 64% visible
METAR KLNS 232053Z 28004KT 10SM FEW060 27/15 A3028 RMK AO2 SLP251 T02720150 56016

10-Day Weather Forecast

Almanac

Astronomy

Aug. 23, 2016 Rise Set
Actual Time
Civil Twilight
Nautical Twilight
Astronomical Twilight
Moon
Length of Visible Light
Length of Day
Tomorrow will be .
, % of the Moon is Illuminated

Today's Extremes

State Highs State Lows

Community

WunderPhotos

Upload Photos

1,934,455 photos uploaded!

WunderBlog® & News

Nearby

Air Quality

  Air Quality AQ Index Pollutant
Not available.

Snow Depth

Station Depth Elevation

Earthquake Activity

City Distance Mag. Time & Date
Minimum magnitude displayed is 2.5.

Coastal Water Temperatures

Place Temperature

Stations

Nearby Weather Stations

Station Location Temp. Windchill Dew Point Humidity Wind Precip. Elev Updated Type
                   

Watches & Warnings

There are currently no watches in effect.